Reid Restricted Landing Area

Jump to: basic info | weather | runways | comments

Related pages: nearby airports | nearby navaids | notams | map

Basic information (top)

Codes: 6IL6
Location: lon 42.118401, lat -88.407898, elev 920 ft / 280 m msl
Status: small_airport

Weather (top)

Current conditions for Dupage Airport 15nm (27km) SSE (rec'd 2014/10/23 04:52Z):

KDPA 230452Z 01003KT 9SM CLR 02/01 A3026 RMK AO2 SLP249 T00220006

Airport forecast for Dupage Airport 15nm (27km) SSE (rec'd 2014/10/22 00:39Z):

TAF KDPA 222338Z 2300/2324 13005KT P6SM SKC 
     FM230100 VRB03KT P6SM FEW250 
     FM231600 19010KT P6SM BKN250 
     FM232100 20008KT P6SM -SHRA SCT025 BKN040 OVC060

Runways (top)

E/W: 3,000 x 105 ft (914 x 32 m) — grass — not lighted

N/S: 2,100 x 105 ft (640 x 32 m) — grass — not lighted

Latest comments (top)

No comments yet for Reid Restricted Landing Area

More... (top)

See also NOTAMs and nearby airports and navaids, or visit the Reid Restricted Landing Area page at the main OurAirports website..